Flugplatz Borghorst-Füchten (UL)

Hier findest Du alle Informationen zum Flugplatz Borghorst-Füchten (UL).

Informationen für Piloten zum Flugplatz Borghorst-Füchten

Hier findest Du alle relevanten Informationen, die Du als Pilot benötigst, um Borghorst-Füchten anzufliegen.

Flugplatz: Borghorst-Füchten ICAO-Code: UL Flugplatz
Frequenz Turm: 123.350 Mhz GAFOR Gebiet: 32
Frequenz Ground: 123.350 Mhz Mogas: nein
Platzrunde: N 0 ft Landegebühr: -
Platzhöhe: Sunrise: 07:03 Uhr UTC
Pisten: 06/24 - 610 m x 30 m, GRAS Sunset: 16:24 Uhr UTC

Mitglieder, die in Borghorst-Füchten fliegen

Flugwetter am Flugplatz Borghorst-Füchten

Die METAR Information stammen aus EDDG (15.99 km entfernt).

METAR Code:
2023/01/16 11:50
EDDG 161150Z AUTO 15015G27KT 110V170 9999 -RA BKN017 BKN022 OVC026 05/02 Q0982 TEMPO RA

Flugschulen am Flugplatz Borghorst-Füchten

Am Flugplatz Borghorst-Füchten gibt es leider keine Flugschule.

Benachbarte Flugplätze und Flugschulen

Es gibt 15 weitere Flugplätze in einem Umkreis von 50 km um den Flugplatz Borghorst-Füchten.

Jetzt anmelden

Passwort vergessen

Umfrage Archiv

Sendet Ihr ADS-B und/oder FLARM?

Ja
84.5 %
Nein
15.5 %
Stimmen: 277 | Diskussion
Anzeige: Roland Aircraft
Statistik Alle Mitglieder

Aktuell sind 57 Besucher online.

Anzeige: EasyVFR